createdAt,value
2022-09-13T00:12:01.545Z,10.60
2022-09-13T00:32:01.374Z,5.90
2022-09-13T00:52:01.020Z,9.10
2022-09-13T01:12:00.778Z,7.50
2022-09-13T01:32:00.527Z,8.10
2022-09-13T01:52:00.203Z,8.40
2022-09-13T02:11:59.955Z,8.90
2022-09-13T02:31:59.730Z,14.10
2022-09-13T02:51:59.547Z,11.20
2022-09-13T03:11:59.111Z,14.10
2022-09-13T03:31:58.947Z,11.00
2022-09-13T03:51:58.579Z,12.60
2022-09-13T04:11:58.314Z,33.60
2022-09-13T04:31:58.075Z,32.60
2022-09-13T04:51:57.754Z,34.50
2022-09-13T05:12:06.692Z,39.10
2022-09-13T05:31:57.257Z,23.90
2022-09-13T05:51:56.968Z,31.10
2022-09-13T06:11:56.656Z,21.60
2022-09-13T06:31:56.417Z,21.20
2022-09-13T06:51:56.184Z,25.20
2022-09-13T07:11:55.909Z,26.60
2022-09-13T07:32:02.025Z,13.30
2022-09-13T07:51:55.604Z,9.40
2022-09-13T08:11:57.383Z,2.10
2022-09-13T08:31:57.466Z,14.40
2022-09-13T08:51:54.614Z,14.30
2022-09-13T09:11:54.212Z,4.30
2022-09-13T09:31:53.930Z,1.10
2022-09-13T09:51:53.660Z,0.70
2022-09-13T10:11:53.483Z,0.80
2022-09-13T10:31:53.159Z,2.60
2022-09-13T10:51:52.906Z,0.60
2022-09-13T11:11:52.589Z,18.10
2022-09-13T11:31:52.384Z,0.60
2022-09-13T11:51:52.100Z,1.50
2022-09-13T12:11:51.779Z,1.60
2022-09-13T12:31:52.278Z,0.90
2022-09-13T12:51:51.983Z,3.00
2022-09-13T13:11:51.910Z,15.10
2022-09-13T13:31:51.510Z,20.90
2022-09-13T13:51:50.390Z,3.00
2022-09-13T14:11:50.125Z,7.30
2022-09-13T14:31:49.951Z,1.70
2022-09-13T14:51:49.579Z,12.20
2022-09-13T15:11:49.318Z,4.60
2022-09-13T15:31:49.152Z,6.50
2022-09-13T15:51:48.839Z,1.70
2022-09-13T16:11:48.580Z,1.20
2022-09-13T16:31:48.426Z,2.90
2022-09-13T16:51:48.074Z,13.00
2022-09-13T17:11:47.746Z,2.70
2022-09-13T17:31:47.511Z,12.70
2022-09-13T17:51:47.135Z,1.00
2022-09-13T18:11:47.880Z,0.80
2022-09-13T18:31:46.602Z,0.40
2022-09-13T18:51:46.288Z,2.60
2022-09-13T19:11:47.720Z,3.50
2022-09-13T19:31:45.769Z,10.30
2022-09-13T19:51:49.967Z,4.40
2022-09-13T20:11:45.223Z,1.10
2022-09-13T20:31:44.962Z,0.50
2022-09-13T20:51:44.696Z,6.50
2022-09-13T21:11:44.449Z,0.90
2022-09-13T21:31:44.177Z,1.10
2022-09-13T21:51:43.908Z,1.10
2022-09-13T22:11:43.643Z,2.30
2022-09-13T22:31:43.342Z,1.00
2022-09-13T22:51:43.069Z,2.50
2022-09-13T23:11:42.850Z,1.90
2022-09-13T23:31:42.637Z,5.10
2022-09-13T23:51:42.247Z,2.00
